createdAt,value
2023-01-29T00:03:45.859Z,83.05
2023-01-29T00:08:48.619Z,83.40
2023-01-29T00:13:52.545Z,83.34
2023-01-29T00:18:55.327Z,83.51
2023-01-29T00:23:58.740Z,83.55
2023-01-29T00:29:02.218Z,83.80
2023-01-29T00:34:05.100Z,83.89
2023-01-29T00:39:10.801Z,83.68
2023-01-29T00:44:32.505Z,83.87
2023-01-29T00:49:35.237Z,83.98
2023-01-29T00:54:38.037Z,84.19
2023-01-29T00:59:40.894Z,84.11
2023-01-29T01:04:43.644Z,84.14
2023-01-29T01:10:05.212Z,84.13
2023-01-29T01:15:09.076Z,84.12
2023-01-29T01:20:13.560Z,84.29
2023-01-29T01:25:17.657Z,84.43
2023-01-29T01:30:20.548Z,84.31
2023-01-29T01:35:23.301Z,84.42
2023-01-29T01:40:26.720Z,84.54
2023-01-29T01:45:35.441Z,84.64
2023-01-29T01:51:00.811Z,84.81
2023-01-29T01:56:07.973Z,85.39
2023-01-29T02:01:12.464Z,85.87
2023-01-29T02:06:34.135Z,86.39
2023-01-29T02:11:38.460Z,86.43
2023-01-29T02:16:41.224Z,86.69
2023-01-29T02:21:43.897Z,87.08
2023-01-29T02:27:08.414Z,87.47
2023-01-29T02:32:17.388Z,87.61
2023-01-29T02:37:27.327Z,87.81
2023-01-29T02:42:44.613Z,88.05
2023-01-29T02:48:00.660Z,88.20
2023-01-29T02:53:27.494Z,88.68
2023-01-29T02:58:41.580Z,88.95
2023-01-29T03:03:50.836Z,89.43
2023-01-29T03:08:59.161Z,89.72
2023-01-29T03:14:20.954Z,90.12
2023-01-29T03:19:36.341Z,90.15
2023-01-29T03:25:06.869Z,90.62
2023-01-29T03:30:31.642Z,91.11
2023-01-29T03:35:39.682Z,90.95
2023-01-29T03:41:32.181Z,91.19
2023-01-29T03:46:57.705Z,91.35
2023-01-29T03:52:09.720Z,91.36
2023-01-29T03:57:36.428Z,91.74
2023-01-29T04:02:47.369Z,92.00
2023-01-29T04:07:57.741Z,92.22
2023-01-29T04:13:06.536Z,92.27
2023-01-29T04:18:10.694Z,92.35
2023-01-29T04:23:25.408Z,92.59
2023-01-29T04:28:53.976Z,92.68
2023-01-29T04:34:25.759Z,92.79
2023-01-29T04:39:48.261Z,93.06
2023-01-29T04:45:03.707Z,93.31
2023-01-29T04:50:28.880Z,93.50
2023-01-29T04:55:36.157Z,93.66
2023-01-29T05:00:44.778Z,93.65
2023-01-29T05:05:51.054Z,93.98
2023-01-29T05:10:56.010Z,94.09
2023-01-29T05:16:20.848Z,94.39
2023-01-29T05:21:24.903Z,94.47
2023-01-29T05:26:46.670Z,94.45
2023-01-29T05:31:49.456Z,94.42
2023-01-29T05:36:52.334Z,94.47
2023-01-29T05:41:55.089Z,94.49
2023-01-29T05:46:57.901Z,94.72
2023-01-29T05:52:00.702Z,94.85
2023-01-29T05:57:03.638Z,94.94
2023-01-29T06:02:06.533Z,95.08
2023-01-29T06:07:09.374Z,95.14
2023-01-29T06:12:13.160Z,95.22
2023-01-29T06:17:16.043Z,95.18
2023-01-29T06:22:18.783Z,95.26
2023-01-29T06:27:21.595Z,95.12
2023-01-29T06:32:24.390Z,94.80
2023-01-29T06:37:27.215Z,94.69
2023-01-29T06:42:30.011Z,94.77
2023-01-29T06:47:32.800Z,94.60
2023-01-29T06:52:35.594Z,94.55
2023-01-29T06:57:38.337Z,94.40
2023-01-29T07:02:41.079Z,94.40
2023-01-29T07:07:43.910Z,94.72
2023-01-29T07:12:46.818Z,94.73
2023-01-29T07:17:56.794Z,94.69
2023-01-29T07:22:59.572Z,94.30
2023-01-29T07:28:02.808Z,94.60
2023-01-29T07:33:08.479Z,94.79
2023-01-29T07:38:11.937Z,94.55
2023-01-29T07:43:16.719Z,94.54
2023-01-29T07:48:19.978Z,94.36
2023-01-29T07:53:23.156Z,94.50
2023-01-29T07:58:25.971Z,93.98
2023-01-29T08:03:28.712Z,93.44
2023-01-29T08:08:31.691Z,93.36
2023-01-29T08:13:34.494Z,93.35
2023-01-29T08:18:38.623Z,92.96
2023-01-29T08:23:41.494Z,92.49
2023-01-29T08:28:44.289Z,91.70
2023-01-29T08:33:47.150Z,91.94
2023-01-29T08:38:50.611Z,92.03
2023-01-29T08:43:53.445Z,91.65
2023-01-29T08:48:59.454Z,91.90
2023-01-29T08:54:02.270Z,91.90
2023-01-29T08:59:05.273Z,91.75
2023-01-29T09:04:08.130Z,91.68
2023-01-29T09:09:12.054Z,91.34
2023-01-29T09:14:19.583Z,90.97
2023-01-29T09:19:22.579Z,90.37
2023-01-29T09:24:25.705Z,90.79
2023-01-29T09:29:28.530Z,91.02
2023-01-29T09:34:31.485Z,90.87
2023-01-29T09:39:34.316Z,90.74
2023-01-29T09:45:04.878Z,90.99
2023-01-29T09:50:28.786Z,90.92
2023-01-29T09:55:46.559Z,91.05
2023-01-29T10:00:49.463Z,91.44
2023-01-29T10:06:07.544Z,91.22
2023-01-29T10:11:19.307Z,90.99
2023-01-29T10:16:48.469Z,90.63
2023-01-29T10:22:05.721Z,90.45
2023-01-29T10:27:19.438Z,90.62
2023-01-29T10:32:25.805Z,90.87
2023-01-29T10:37:41.704Z,90.71
2023-01-29T10:42:53.122Z,90.93
2023-01-29T10:48:26.310Z,91.55
2023-01-29T10:53:53.613Z,91.35
2023-01-29T10:59:07.193Z,91.06
2023-01-29T11:04:12.875Z,91.23
2023-01-29T11:09:37.499Z,91.34
2023-01-29T11:14:54.319Z,91.23
2023-01-29T11:19:57.277Z,90.99
2023-01-29T11:25:16.661Z,91.36
2023-01-29T11:30:41.548Z,91.50
2023-01-29T11:35:44.876Z,91.92
2023-01-29T11:40:48.118Z,91.75
2023-01-29T11:45:59.036Z,91.77
2023-01-29T11:51:05.603Z,91.72
2023-01-29T11:56:29.690Z,91.64
2023-01-29T12:01:42.909Z,91.47
2023-01-29T12:07:12.190Z,91.60
2023-01-29T12:12:42.252Z,91.22
2023-01-29T12:17:54.110Z,91.62
2023-01-29T12:23:05.102Z,91.80
2023-01-29T12:28:41.495Z,92.08
2023-01-29T12:33:57.317Z,91.99
2023-01-29T12:39:00.719Z,92.53
2023-01-29T12:44:26.066Z,92.45
2023-01-29T12:49:36.521Z,92.59
2023-01-29T12:55:00.219Z,92.49
2023-01-29T13:00:27.846Z,92.54
2023-01-29T13:05:47.377Z,92.75
2023-01-29T13:10:54.032Z,92.93
2023-01-29T13:16:00.087Z,93.13
2023-01-29T13:21:05.260Z,93.14
2023-01-29T13:26:08.167Z,93.54
2023-01-29T13:31:22.716Z,93.39
2023-01-29T13:36:29.951Z,93.32
2023-01-29T13:41:38.844Z,93.35
2023-01-29T13:46:42.321Z,93.71
2023-01-29T13:51:45.123Z,93.86
2023-01-29T13:56:53.983Z,94.21
2023-01-29T14:02:05.587Z,94.49
2023-01-29T14:07:50.011Z,94.63
2023-01-29T14:12:55.679Z,95.05
2023-01-29T14:18:10.936Z,95.26
2023-01-29T14:23:21.750Z,95.14
2023-01-29T14:28:29.445Z,95.52
2023-01-29T14:33:37.167Z,95.51
2023-01-29T14:38:48.685Z,95.76
2023-01-29T14:43:51.595Z,96.10
2023-01-29T14:48:54.532Z,96.33
2023-01-29T14:54:16.672Z,96.42
2023-01-29T14:59:30.608Z,96.58
2023-01-29T15:04:51.090Z,96.89
2023-01-29T15:10:32.729Z,97.24
2023-01-29T15:15:54.387Z,97.29
2023-01-29T15:21:05.822Z,97.60
2023-01-29T15:26:16.186Z,97.81
2023-01-29T15:31:20.448Z,97.83
2023-01-29T15:36:28.356Z,97.91
2023-01-29T15:41:32.123Z,97.87
2023-01-29T15:46:39.423Z,98.10
2023-01-29T15:51:42.524Z,98.07
2023-01-29T15:56:50.470Z,98.18
2023-01-29T16:01:54.434Z,98.13
2023-01-29T16:07:04.728Z,98.23
2023-01-29T16:12:08.096Z,98.23
2023-01-29T16:17:23.589Z,98.11
2023-01-29T16:22:31.495Z,98.11
2023-01-29T16:27:35.181Z,98.23
2023-01-29T16:32:38.080Z,98.23
2023-01-29T16:37:44.764Z,97.89
2023-01-29T16:42:47.583Z,97.80
2023-01-29T16:48:01.892Z,98.16
2023-01-29T16:53:19.981Z,98.17
2023-01-29T16:58:28.001Z,98.06
2023-01-29T17:03:33.868Z,98.19
2023-01-29T17:08:37.849Z,98.36
2023-01-29T17:13:45.153Z,98.44
2023-01-29T17:18:48.069Z,98.44
2023-01-29T17:23:54.036Z,98.48
2023-01-29T17:28:57.135Z,98.64
2023-01-29T17:34:00.122Z,98.56
2023-01-29T17:39:17.649Z,98.80
2023-01-29T17:44:28.248Z,98.67
2023-01-29T17:49:35.966Z,98.89
2023-01-29T17:54:38.784Z,98.78
2023-01-29T17:59:41.627Z,98.87
2023-01-29T18:04:51.123Z,99.25
2023-01-29T18:09:54.167Z,99.33
2023-01-29T18:14:57.311Z,99.72
2023-01-29T18:20:00.238Z,99.93
2023-01-29T18:25:03.451Z,100.00
2023-01-29T18:30:07.454Z,100.00
2023-01-29T18:35:11.226Z,100.00
2023-01-29T18:40:17.480Z,100.00
2023-01-29T18:45:21.031Z,100.00
2023-01-29T18:50:26.741Z,100.00
2023-01-29T18:55:31.209Z,100.00
2023-01-29T19:00:39.454Z,100.00
2023-01-29T19:05:42.367Z,100.00
2023-01-29T19:10:45.199Z,100.00
2023-01-29T19:15:50.659Z,100.00
2023-01-29T19:20:54.492Z,100.00
2023-01-29T19:25:59.748Z,100.00
2023-01-29T19:31:04.360Z,100.00
2023-01-29T19:36:07.697Z,100.00
2023-01-29T19:41:11.154Z,100.00
2023-01-29T19:46:14.820Z,100.00
2023-01-29T19:51:17.689Z,100.00
2023-01-29T19:56:21.501Z,100.00
2023-01-29T20:01:25.101Z,100.00
2023-01-29T20:06:31.216Z,100.00
2023-01-29T20:11:34.175Z,100.00
2023-01-29T20:16:37.479Z,100.00
2023-01-29T20:21:41.213Z,100.00
2023-01-29T20:26:44.774Z,100.00
2023-01-29T20:31:47.894Z,100.00
2023-01-29T20:36:50.767Z,100.00
2023-01-29T20:41:55.220Z,100.00
2023-01-29T20:47:01.836Z,100.00
2023-01-29T20:52:06.860Z,100.00
2023-01-29T20:57:09.644Z,100.00
2023-01-29T21:02:12.572Z,100.00
2023-01-29T21:07:15.760Z,100.00
2023-01-29T21:12:18.917Z,100.00
2023-01-29T21:17:21.753Z,100.00
2023-01-29T21:22:25.763Z,100.00
2023-01-29T21:27:28.520Z,100.00
2023-01-29T21:32:31.434Z,100.00
2023-01-29T21:37:39.206Z,100.00
2023-01-29T21:43:00.779Z,100.00
2023-01-29T21:48:04.331Z,100.00
2023-01-29T21:53:07.164Z,100.00
2023-01-29T21:58:10.311Z,100.00
2023-01-29T22:03:13.140Z,100.00
2023-01-29T22:08:27.354Z,100.00
2023-01-29T22:13:30.562Z,100.00
2023-01-29T22:18:34.190Z,100.00
2023-01-29T22:23:37.039Z,100.00
2023-01-29T22:28:40.304Z,100.00
2023-01-29T22:33:43.457Z,100.00
2023-01-29T22:38:46.917Z,100.00
2023-01-29T22:43:49.689Z,100.00
2023-01-29T22:48:52.480Z,100.00
2023-01-29T22:53:56.617Z,100.00
2023-01-29T22:59:00.899Z,100.00
2023-01-29T23:04:04.148Z,100.00
2023-01-29T23:09:07.057Z,100.00
2023-01-29T23:14:09.982Z,100.00
2023-01-29T23:19:12.818Z,100.00
2023-01-29T23:24:15.723Z,100.00
2023-01-29T23:29:18.552Z,100.00
2023-01-29T23:34:22.503Z,100.00
2023-01-29T23:39:25.283Z,99.99
2023-01-29T23:44:28.910Z,99.98
2023-01-29T23:49:32.064Z,100.00
2023-01-29T23:54:34.808Z,99.94
2023-01-29T23:59:37.624Z,99.88
